Time;durP1;ratioP1;P1;durP2;ratioP2;P2;SDS_P1;SDS_P2;PMS_P1;PMS_P2;Temp;Humidity;BMP_temperature;BMP_pressure;BME280_temperature;BME280_humidity;BME280_pressure;Samples;Min_cycle;Max_cycle;Signal;HPM_P1;HPM_P2
2022/07/17 16:26:18;;;;;;;15.37;3.47;;;;;;;;;;5062018;27;2728515;-65
2022/07/17 16:28:45;;;;;;;5.67;2.33;;;;;;;;;;5145853;27;20088;-63
2022/07/17 16:31:12;;;;;;;6.37;3.27;;;;;;;;;;5145855;27;20106;-64
2022/07/17 16:33:38;;;;;;;10.47;3.50;;;;;;;;;;5138359;27;20019;-64
2022/07/17 16:36:05;;;;;;;8.57;2.60;;;;;;;;;;5125759;28;20024;-64
2022/07/17 16:38:32;;;;;;;6.50;2.97;;;;;;;;;;5130305;28;20439;-64
2022/07/17 16:40:58;;;;;;;7.80;3.10;;;;;;;;;;5130007;28;20414;-65
2022/07/17 16:43:25;;;;;;;21.43;4.27;;;;;;;;;;5130329;28;20031;-64
2022/07/17 16:45:52;;;;;;;5.60;2.67;;;;;;;;;;5130080;28;20172;-64
2022/07/17 16:48:19;;;;;;;4.37;2.70;;;;;;;;;;5128087;28;20150;-65
2022/07/17 16:50:45;;;;;;;17.73;2.97;;;;;;;;;;5132283;27;20024;-64
2022/07/17 16:53:13;;;;;;;14.85;3.47;;;;;;;;;;5145308;27;20026;-64
2022/07/17 16:55:40;;;;;;;13.75;2.90;;;;;;;;;;5129399;27;20461;-64
2022/07/17 16:58:07;;;;;;;7.95;3.17;;;;;;;;;;5125590;28;20031;-64
2022/07/17 17:00:35;;;;;;;10.77;3.72;;;;;;;;;;5129549;28;20023;-64
2022/07/17 17:03:02;;;;;;;15.57;2.95;;;;;;;;;;5129889;28;20055;-68
2022/07/17 17:05:30;;;;;;;6.47;2.78;;;;;;;;;;5129581;28;20546;-69
2022/07/17 17:07:56;;;;;;;13.93;4.03;;;;;;;;;;5129447;28;20024;-67
2022/07/17 17:10:24;;;;;;;10.88;3.47;;;;;;;;;;5125947;28;20015;-67
2022/07/17 17:12:51;;;;;;;5.70;2.40;;;;;;;;;;5123543;28;20066;-65
2022/07/17 17:15:18;;;;;;;14.88;2.45;;;;;;;;;;5123321;28;20035;-66
2022/07/17 17:17:45;;;;;;;8.88;2.88;;;;;;;;;;5124579;28;20023;-66
2022/07/17 17:20:12;;;;;;;11.68;3.85;;;;;;;;;;5125277;28;20020;-66
2022/07/17 17:22:39;;;;;;;9.20;4.03;;;;;;;;;;5129258;28;20147;-66
2022/07/17 17:25:07;;;;;;;7.32;3.03;;;;;;;;;;5127985;28;20035;-66
2022/07/17 17:27:34;;;;;;;10.13;2.63;;;;;;;;;;5115057;28;20159;-66
2022/07/17 17:30:01;;;;;;;12.35;2.72;;;;;;;;;;5115771;28;20099;-66
2022/07/17 17:32:30;;;;;;;12.25;3.47;;;;;;;;;;5114082;28;20015;-66
2022/07/17 17:34:58;;;;;;;20.15;2.47;;;;;;;;;;5110220;28;20067;-67
2022/07/17 17:37:25;;;;;;;17.58;3.50;;;;;;;;;;5109629;28;20074;-67
2022/07/17 17:39:52;;;;;;;21.38;3.35;;;;;;;;;;5110181;28;20069;-67
2022/07/17 17:42:19;;;;;;;6.32;2.67;;;;;;;;;;5111076;28;20194;-66
2022/07/17 17:44:45;;;;;;;23.75;3.53;;;;;;;;;;5115339;28;20036;-67
2022/07/17 17:47:12;;;;;;;8.60;3.10;;;;;;;;;;5114899;28;20031;-67
2022/07/17 17:49:39;;;;;;;14.90;2.53;;;;;;;;;;5115389;28;20023;-67
2022/07/17 17:52:06;;;;;;;10.60;2.92;;;;;;;;;;5115073;28;20023;-66
2022/07/17 17:54:32;;;;;;;19.75;3.25;;;;;;;;;;5113348;28;20107;-65
2022/07/17 17:57:00;;;;;;;10.07;2.42;;;;;;;;;;5109341;28;20036;-64
2022/07/17 17:59:28;;;;;;;7.90;3.13;;;;;;;;;;5109504;28;20085;-64
2022/07/17 18:01:58;;;;;;;8.45;2.85;;;;;;;;;;5109837;28;20093;-64
2022/07/17 18:04:25;;;;;;;4.88;2.25;;;;;;;;;;5110197;28;20084;-64
2022/07/17 18:06:53;;;;;;;7.18;2.88;;;;;;;;;;5114427;28;20027;-63
2022/07/17 18:09:21;;;;;;;5.75;2.53;;;;;;;;;;5114532;28;20024;-65
2022/07/17 18:11:49;;;;;;;11.65;2.60;;;;;;;;;;5114911;28;20032;-69
2022/07/17 18:14:16;;;;;;;26.35;3.28;;;;;;;;;;5114199;28;20032;-69
2022/07/17 18:16:43;;;;;;;14.30;4.35;;;;;;;;;;5113852;28;20478;-70
2022/07/17 18:19:10;;;;;;;9.18;3.08;;;;;;;;;;5109326;28;20054;-67
2022/07/17 18:21:37;;;;;;;7.00;2.97;;;;;;;;;;5109358;28;20026;-64
2022/07/17 18:24:04;;;;;;;21.00;2.28;;;;;;;;;;5108628;28;20034;-71
2022/07/17 18:26:31;;;;;;;8.38;2.80;;;;;;;;;;5109215;28;20027;-69
2022/07/17 18:28:58;;;;;;;7.05;3.17;;;;;;;;;;5114478;28;20064;-67
2022/07/17 18:31:25;;;;;;;8.25;3.20;;;;;;;;;;5114295;28;20095;-66
2022/07/17 18:33:52;;;;;;;14.55;3.55;;;;;;;;;;5114278;28;20023;-69
2022/07/17 18:36:18;;;;;;;7.93;3.03;;;;;;;;;;5113975;28;20085;-71
2022/07/17 18:38:46;;;;;;;5.80;2.25;;;;;;;;;;5112398;28;20023;-69
2022/07/17 18:41:13;;;;;;;5.28;2.67;;;;;;;;;;5109034;28;20031;-69
2022/07/17 18:43:40;;;;;;;4.22;2.22;;;;;;;;;;5108868;28;20019;-65
2022/07/17 18:46:07;;;;;;;9.98;3.03;;;;;;;;;;5108771;28;20514;-65
2022/07/17 18:48:34;;;;;;;7.55;2.92;;;;;;;;;;5108574;28;20028;-68
2022/07/17 18:51:01;;;;;;;8.32;2.80;;;;;;;;;;5113849;28;20408;-69
2022/07/17 18:53:28;;;;;;;4.03;2.13;;;;;;;;;;5114009;28;20374;-72
2022/07/17 18:55:55;;;;;;;9.60;2.28;;;;;;;;;;5113111;28;20112;-65
2022/07/17 18:58:21;;;;;;;9.07;2.40;;;;;;;;;;5113833;28;20434;-71
2022/07/17 19:00:48;;;;;;;8.77;3.00;;;;;;;;;;5113595;28;20055;-68
2022/07/17 19:03:15;;;;;;;13.35;3.03;;;;;;;;;;5108786;28;20401;-70
2022/07/17 19:05:42;;;;;;;6.30;2.05;;;;;;;;;;5108314;28;20039;-68
2022/07/17 19:08:09;;;;;;;8.02;2.58;;;;;;;;;;5108440;28;20107;-70
2022/07/17 19:10:36;;;;;;;9.25;2.15;;;;;;;;;;5108384;28;20098;-70
2022/07/17 19:13:03;;;;;;;8.00;2.85;;;;;;;;;;5112723;28;20034;-68
2022/07/17 19:15:29;;;;;;;9.23;2.63;;;;;;;;;;5113076;28;20020;-66
2022/07/17 19:17:56;;;;;;;12.40;2.72;;;;;;;;;;5113349;28;20024;-68
2022/07/17 19:20:23;;;;;;;7.38;2.40;;;;;;;;;;5113306;28;20035;-66
2022/07/17 19:22:51;;;;;;;9.23;2.65;;;;;;;;;;5113355;28;20027;-66
2022/07/17 19:25:17;;;;;;;6.03;2.60;;;;;;;;;;5107405;28;20039;-68
2022/07/17 19:27:44;;;;;;;11.05;2.90;;;;;;;;;;5108020;28;20493;-70
2022/07/17 19:30:11;;;;;;;5.35;2.38;;;;;;;;;;5107667;28;20031;-70
2022/07/17 19:32:38;;;;;;;9.45;2.78;;;;;;;;;;5107938;28;20031;-71
2022/07/17 19:35:05;;;;;;;9.07;2.85;;;;;;;;;;5111665;28;20023;-64
2022/07/17 19:37:32;;;;;;;17.50;2.38;;;;;;;;;;5112968;28;20024;-66
2022/07/17 19:39:59;;;;;;;6.82;2.35;;;;;;;;;;5094960;28;20387;-68
2022/07/17 19:42:25;;;;;;;6.43;1.90;;;;;;;;;;5113140;28;20030;-66
2022/07/17 19:44:53;;;;;;;17.08;2.38;;;;;;;;;;5112458;28;20032;-70
2022/07/17 19:47:20;;;;;;;3.83;1.85;;;;;;;;;;5107983;28;20362;-70
2022/07/17 19:49:46;;;;;;;9.40;2.40;;;;;;;;;;5106682;28;20031;-70
2022/07/17 19:52:13;;;;;;;5.32;2.65;;;;;;;;;;5107443;28;20026;-70
2022/07/17 19:54:40;;;;;;;13.95;3.35;;;;;;;;;;5107418;28;20032;-70
2022/07/17 19:57:07;;;;;;;6.55;2.22;;;;;;;;;;5111188;28;20035;-71
2022/07/17 19:59:34;;;;;;;6.35;2.38;;;;;;;;;;5112883;28;20350;-66
2022/07/17 20:02:01;;;;;;;7.38;2.35;;;;;;;;;;5112105;28;20034;-68
2022/07/17 20:04:28;;;;;;;9.65;2.92;;;;;;;;;;5112706;28;20031;-69
2022/07/17 20:06:55;;;;;;;6.63;2.80;;;;;;;;;;5112808;28;20048;-66
2022/07/17 20:09:22;;;;;;;8.23;2.75;;;;;;;;;;5108565;28;20099;-69
2022/07/17 20:11:49;;;;;;;11.10;2.88;;;;;;;;;;5107185;28;20319;-67
2022/07/17 20:14:16;;;;;;;9.00;3.53;;;;;;;;;;5106193;28;20024;-68
2022/07/17 20:16:44;;;;;;;6.25;2.78;;;;;;;;;;5105502;28;20019;-68
2022/07/17 20:19:11;;;;;;;12.52;2.92;;;;;;;;;;5109829;28;20030;-66
2022/07/17 20:21:38;;;;;;;7.18;2.92;;;;;;;;;;5110704;28;20110;-66
2022/07/17 20:24:06;;;;;;;9.35;2.72;;;;;;;;;;5112208;28;20377;-66
2022/07/17 20:26:32;;;;;;;5.82;2.47;;;;;;;;;;5111265;28;20378;-66
2022/07/17 20:28:59;;;;;;;7.30;3.42;;;;;;;;;;5112159;28;20485;-66
2022/07/17 20:31:26;;;;;;;15.82;3.47;;;;;;;;;;5108508;28;20099;-66
2022/07/17 20:33:52;;;;;;;7.28;2.95;;;;;;;;;;5106655;28;20362;-66
2022/07/17 20:36:19;;;;;;;10.18;2.80;;;;;;;;;;5106896;28;20541;-67
2022/07/17 20:38:46;;;;;;;4.40;2.47;;;;;;;;;;5106901;28;20034;-66
2022/07/17 20:41:17;;;;;;;5.13;2.72;;;;;;;;;;5109672;28;20020;-66
2022/07/17 20:43:47;;;;;;;15.50;2.60;;;;;;;;;;5112266;28;20374;-66
2022/07/17 20:46:18;;;;;;;6.88;2.30;;;;;;;;;;5111574;28;20500;-66
2022/07/17 20:48:45;;;;;;;17.02;4.10;;;;;;;;;;5111608;28;20016;-67
2022/07/17 20:51:13;;;;;;;12.02;3.25;;;;;;;;;;5111098;28;20470;-66
2022/07/17 20:53:40;;;;;;;8.18;2.30;;;;;;;;;;5108246;28;20421;-66
2022/07/17 20:56:06;;;;;;;12.48;2.50;;;;;;;;;;5106078;28;20023;-66
2022/07/17 20:58:33;;;;;;;13.30;3.05;;;;;;;;;;5106445;28;20024;-66
2022/07/17 21:01:01;;;;;;;8.93;3.35;;;;;;;;;;5107373;28;20031;-66
2022/07/17 21:03:28;;;;;;;6.75;2.60;;;;;;;;;;5112905;28;20354;-65
2022/07/17 21:05:55;;;;;;;13.82;2.88;;;;;;;;;;5116009;28;20557;-66
2022/07/17 21:08:25;;;;;;;5.95;2.83;;;;;;;;;;5116089;28;20402;-66
2022/07/17 21:10:53;;;;;;;7.07;2.65;;;;;;;;;;5115534;28;20012;-66
2022/07/17 21:13:21;;;;;;;7.85;2.67;;;;;;;;;;5115622;28;20031;-66
2022/07/17 21:15:52;;;;;;;9.65;2.22;;;;;;;;;;5112601;28;20114;-66
2022/07/17 21:18:23;;;;;;;3.88;2.17;;;;;;;;;;5110592;28;20023;-66
2022/07/17 21:20:50;;;;;;;22.02;3.15;;;;;;;;;;5110018;28;20047;-65
2022/07/17 21:23:17;;;;;;;13.85;3.13;;;;;;;;;;5110122;28;20035;-66
2022/07/17 21:25:44;;;;;;;6.10;2.05;;;;;;;;;;5112998;28;20036;-66
2022/07/17 21:28:11;;;;;;;8.30;2.83;;;;;;;;;;5115569;28;20068;-66
2022/07/17 21:30:39;;;;;;;5.13;2.83;;;;;;;;;;5115289;28;20026;-66
2022/07/17 21:33:06;;;;;;;12.80;2.58;;;;;;;;;;5115198;28;20108;-66
2022/07/17 21:35:32;;;;;;;5.70;2.53;;;;;;;;;;5115549;28;20032;-66
2022/07/17 21:38:00;;;;;;;7.60;2.58;;;;;;;;;;5112477;28;20032;-66
2022/07/17 21:40:27;;;;;;;6.95;2.80;;;;;;;;;;5110194;28;20032;-68
2022/07/17 21:42:55;;;;;;;8.43;2.15;;;;;;;;;;5109891;28;20372;-66
2022/07/17 21:45:22;;;;;;;14.45;2.47;;;;;;;;;;5110059;28;20097;-67
2022/07/17 21:47:50;;;;;;;7.93;2.40;;;;;;;;;;5112471;28;20030;-66
2022/07/17 21:50:17;;;;;;;7.57;2.78;;;;;;;;;;5115094;28;20051;-66
2022/07/17 21:52:43;;;;;;;6.47;3.58;;;;;;;;;;5114855;28;20031;-66
2022/07/17 21:55:10;;;;;;;7.95;3.78;;;;;;;;;;5115035;28;20015;-66
2022/07/17 21:57:37;;;;;;;14.80;2.40;;;;;;;;;;5115079;28;20031;-66
2022/07/17 22:00:06;;;;;;;3.67;2.00;;;;;;;;;;5112340;28;20030;-66
2022/07/17 22:02:34;;;;;;;4.95;2.30;;;;;;;;;;5109656;28;20027;-66
2022/07/17 22:05:03;;;;;;;2.75;1.75;;;;;;;;;;5109223;28;20031;-67
2022/07/17 22:07:29;;;;;;;8.52;2.10;;;;;;;;;;5109733;28;20038;-66
2022/07/17 22:09:56;;;;;;;3.17;1.88;;;;;;;;;;5111545;28;20020;-66
2022/07/17 22:12:23;;;;;;;4.53;2.00;;;;;;;;;;5114048;28;20024;-66
2022/07/17 22:14:50;;;;;;;4.97;1.88;;;;;;;;;;5114855;28;20035;-66
2022/07/17 22:17:18;;;;;;;3.30;1.95;;;;;;;;;;5114717;28;20096;-67
2022/07/17 22:19:45;;;;;;;8.95;2.47;;;;;;;;;;5114660;28;20034;-66
2022/07/17 22:22:12;;;;;;;6.72;2.50;;;;;;;;;;5111866;28;20024;-67
2022/07/17 22:24:39;;;;;;;4.78;2.28;;;;;;;;;;5109200;28;20035;-66
2022/07/17 22:27:06;;;;;;;13.30;3.00;;;;;;;;;;5109205;28;20076;-66
2022/07/17 22:29:33;;;;;;;5.80;2.38;;;;;;;;;;5109180;28;20027;-66
2022/07/17 22:32:01;;;;;;;8.75;2.80;;;;;;;;;;5110469;28;20469;-66
2022/07/17 22:34:28;;;;;;;8.65;2.15;;;;;;;;;;5114299;28;20047;-67
2022/07/17 22:36:54;;;;;;;6.20;2.63;;;;;;;;;;5114030;28;20481;-66
2022/07/17 22:39:21;;;;;;;7.90;3.38;;;;;;;;;;5114301;28;20100;-66
2022/07/17 22:41:48;;;;;;;10.05;2.90;;;;;;;;;;5114348;28;20079;-66
2022/07/17 22:44:15;;;;;;;6.22;2.65;;;;;;;;;;5112035;28;20040;-65
2022/07/17 22:46:43;;;;;;;2.15;1.25;;;;;;;;;;5108625;28;20019;-66
2022/07/17 22:49:10;;;;;;;4.15;2.17;;;;;;;;;;5109041;28;20035;-66
2022/07/17 22:51:37;;;;;;;4.82;2.13;;;;;;;;;;5108716;28;20046;-67
2022/07/17 22:54:04;;;;;;;4.20;2.08;;;;;;;;;;5109184;28;20051;-66
2022/07/17 22:56:31;;;;;;;4.28;2.17;;;;;;;;;;5114046;28;20046;-66
2022/07/17 22:58:58;;;;;;;5.40;2.42;;;;;;;;;;5113919;28;20028;-67
2022/07/17 23:01:25;;;;;;;5.40;2.17;;;;;;;;;;5113890;28;20015;-66
2022/07/17 23:03:52;;;;;;;14.88;3.28;;;;;;;;;;5113187;28;20074;-66
2022/07/17 23:06:19;;;;;;;9.38;2.47;;;;;;;;;;5112457;28;20067;-66
2022/07/17 23:08:47;;;;;;;16.77;2.67;;;;;;;;;;5108013;28;20077;-66
2022/07/17 23:11:15;;;;;;;5.65;2.03;;;;;;;;;;5108376;28;20093;-66
2022/07/17 23:13:42;;;;;;;7.50;2.50;;;;;;;;;;5108158;28;20036;-66
2022/07/17 23:16:09;;;;;;;7.63;2.72;;;;;;;;;;5108750;28;20478;-66
2022/07/17 23:18:36;;;;;;;6.63;2.40;;;;;;;;;;5113414;28;20092;-66
2022/07/17 23:21:03;;;;;;;5.78;2.33;;;;;;;;;;5113232;28;20070;-66
2022/07/17 23:23:30;;;;;;;5.80;2.58;;;;;;;;;;5112604;28;20054;-66
2022/07/17 23:25:56;;;;;;;6.32;2.90;;;;;;;;;;5128444;27;20035;-66
2022/07/17 23:28:23;;;;;;;5.30;2.33;;;;;;;;;;5133153;27;20045;-66
2022/07/17 23:30:53;;;;;;;7.30;1.95;;;;;;;;;;5128569;27;20347;-66
2022/07/17 23:33:23;;;;;;;7.05;2.28;;;;;;;;;;5116998;27;20031;-66
2022/07/17 23:35:51;;;;;;;5.57;2.15;;;;;;;;;;5107900;28;20031;-67
2022/07/17 23:38:17;;;;;;;3.10;1.75;;;;;;;;;;5108080;28;20023;-66
2022/07/17 23:40:44;;;;;;;5.22;2.08;;;;;;;;;;5112712;28;20016;-67
2022/07/17 23:43:13;;;;;;;10.70;2.30;;;;;;;;;;5112845;28;20385;-66
2022/07/17 23:45:40;;;;;;;4.90;2.03;;;;;;;;;;5113089;28;20114;-67
2022/07/17 23:48:07;;;;;;;4.32;1.90;;;;;;;;;;5113076;28;20098;-66
2022/07/17 23:50:34;;;;;;;5.32;1.85;;;;;;;;;;5112712;28;20378;-66
2022/07/17 23:53:01;;;;;;;4.45;2.25;;;;;;;;;;5107341;28;20481;-66
2022/07/17 23:55:28;;;;;;;10.50;2.67;;;;;;;;;;5107704;28;20099;-66
2022/07/17 23:57:56;;;;;;;5.63;1.98;;;;;;;;;;5107637;28;20057;-66
